Time;durP1;ratioP1;P1;durP2;ratioP2;P2;SDS_P1;SDS_P2;PMS_P1;PMS_P2;Temp;Humidity;BMP_temperature;BMP_pressure;BME280_temperature;BME280_humidity;BME280_pressure;Samples;Min_cycle;Max_cycle;Signal;HPM_P1;HPM_P2
2022/09/15 00:01:02;;;;;;;16.80;15.17;;;16.90;97.90;;;;;;5061134;28;20456;-70
2022/09/15 00:03:29;;;;;;;20.67;15.40;;;16.80;98.20;;;;;;5060908;28;20470;-70
2022/09/15 00:05:56;;;;;;;17.17;15.50;;;16.80;97.80;;;;;;5060995;28;20449;-70
2022/09/15 00:08:24;;;;;;;19.47;15.67;;;16.80;97.90;;;;;;5061371;28;20445;-70
2022/09/15 00:10:53;;;;;;;16.13;14.43;;;16.80;98.00;;;;;;5060901;28;20446;-69
2022/09/15 00:13:20;;;;;;;16.43;13.60;;;16.70;98.00;;;;;;5061100;28;20465;-70
2022/09/15 00:15:47;;;;;;;15.03;13.43;;;16.70;98.00;;;;;;5060594;28;20449;-70
2022/09/15 00:18:14;;;;;;;16.53;14.77;;;16.70;97.90;;;;;;5060444;28;20456;-71
2022/09/15 00:20:42;;;;;;;14.30;12.80;;;16.80;97.80;;;;;;5059148;28;20472;-69
2022/09/15 00:23:09;;;;;;;15.57;13.97;;;16.80;97.50;;;;;;5058890;28;20472;-70
2022/09/15 00:25:41;;;;;;;15.13;12.67;;;16.80;97.40;;;;;;5059133;28;20451;-70
2022/09/15 00:28:08;;;;;;;18.67;13.60;;;16.80;97.30;;;;;;5060301;28;20916;-69
2022/09/15 00:30:35;;;;;;;16.43;13.17;;;16.80;97.10;;;;;;5060203;28;20445;-69
2022/09/15 00:33:01;;;;;;;15.17;12.73;;;16.70;96.70;;;;;;5059183;28;20461;-70
2022/09/15 00:35:28;;;;;;;14.23;12.93;;;16.70;96.60;;;;;;5059596;28;20448;-70
2022/09/15 00:37:55;;;;;;;15.03;12.00;;;16.70;96.60;;;;;;5059088;28;20446;-69
2022/09/15 00:40:22;;;;;;;14.43;12.93;;;16.70;96.50;;;;;;5059130;28;20492;-69
2022/09/15 00:42:50;;;;;;;14.37;12.87;;;16.60;96.30;;;;;;5058119;28;20469;-70
2022/09/15 00:45:17;;;;;;;17.43;13.90;;;16.50;96.20;;;;;;5057573;28;20446;-70
2022/09/15 00:47:44;;;;;;;15.80;13.80;;;16.50;96.40;;;;;;5056650;28;20940;-70
2022/09/15 00:50:16;;;;;;;16.80;15.05;;;16.50;96.60;;;;;;5055881;28;20435;-69
2022/09/15 00:52:46;;;;;;;16.17;14.57;;;16.40;96.60;;;;;;5056596;28;20714;-70
2022/09/15 00:55:19;;;;;;;18.73;15.13;;;16.40;96.60;;;;;;5055577;28;20468;-70
2022/09/15 00:57:49;;;;;;;13.77;12.37;;;16.30;96.60;;;;;;5056181;28;20434;-70
2022/09/15 01:00:20;;;;;;;16.63;14.43;;;16.30;96.60;;;;;;5056533;28;20484;-69
2022/09/15 01:02:48;;;;;;;20.07;14.97;;;16.30;96.70;;;;;;5056364;28;20481;-70
2022/09/15 01:05:17;;;;;;;18.13;14.40;;;16.30;96.80;;;;;;5056236;28;20475;-70
2022/09/15 01:07:49;;;;;;;15.83;14.30;;;16.30;96.80;;;;;;5055725;28;20555;-70
2022/09/15 01:10:21;;;;;;;17.10;15.27;;;16.30;96.80;;;;;;5055701;28;20437;-69
2022/09/15 01:12:48;;;;;;;16.20;14.60;;;16.30;96.70;;;;;;5055826;28;20477;-69
2022/09/15 01:15:17;;;;;;;17.60;15.73;;;16.30;96.70;;;;;;5055568;28;20453;-69
2022/09/15 01:17:56;;;;;;;16.83;15.07;;;16.30;96.70;;;;;;5054482;28;20446;-69
2022/09/15 01:20:58;;;;;;;16.90;15.20;;;16.30;96.70;;;;;;5055457;28;20305;-69
2022/09/15 01:24:04;;;;;;;16.00;14.40;;;16.30;96.50;;;;;;5054971;28;20482;-69
2022/09/15 01:27:08;;;;;;;17.57;14.20;;;16.30;96.60;;;;;;4993035;28;20455;-69
2022/09/15 01:30:13;;;;;;;17.90;15.40;;;16.30;96.70;;;;;;5029093;28;20472;-69
2022/09/15 01:33:02;;;;;;;18.37;15.37;;;16.20;96.50;;;;;;5048993;28;20489;-69
2022/09/15 01:35:44;;;;;;;19.50;16.93;;;16.20;96.50;;;;;;5054419;28;20810;-70
2022/09/15 01:38:17;;;;;;;18.77;15.87;;;16.20;96.80;;;;;;5054462;28;20440;-70
2022/09/15 01:40:51;;;;;;;19.43;15.80;;;16.20;96.80;;;;;;5054209;28;20483;-69
2022/09/15 01:43:22;;;;;;;16.40;14.70;;;16.20;96.90;;;;;;5054286;28;20466;-69
2022/09/15 01:45:51;;;;;;;17.70;15.77;;;16.20;97.10;;;;;;5053842;28;20904;-69
2022/09/15 01:48:21;;;;;;;19.33;14.50;;;16.20;97.10;;;;;;5054071;28;20460;-70
2022/09/15 01:50:51;;;;;;;20.33;17.10;;;16.10;97.00;;;;;;5053970;28;20439;-70
2022/09/15 01:53:20;;;;;;;15.37;13.87;;;16.10;97.00;;;;;;5053876;28;20476;-69
2022/09/15 01:55:55;;;;;;;16.70;15.00;;;16.00;97.00;;;;;;5053633;28;20917;-70
2022/09/15 01:58:22;;;;;;;18.53;15.30;;;16.00;97.00;;;;;;5053788;28;20440;-69
2022/09/15 02:00:55;;;;;;;16.87;15.13;;;16.00;97.00;;;;;;5053940;28;20484;-69
2022/09/15 02:03:27;;;;;;;20.23;15.57;;;16.00;97.00;;;;;;5053688;28;20493;-69
2022/09/15 02:06:01;;;;;;;17.43;15.00;;;16.00;97.00;;;;;;5053269;28;20449;-70
2022/09/15 02:08:34;;;;;;;19.80;15.43;;;16.00;96.90;;;;;;5053926;28;20803;-69
2022/09/15 02:11:11;;;;;;;21.47;14.53;;;16.00;96.80;;;;;;5053659;28;20430;-69
2022/09/15 02:13:47;;;;;;;20.77;16.03;;;16.00;96.70;;;;;;5053774;28;20478;-69
2022/09/15 02:16:18;;;;;;;15.77;14.10;;;16.00;96.60;;;;;;5053677;28;20433;-69
2022/09/15 02:19:10;;;;;;;20.80;14.80;;;16.00;96.60;;;;;;5053419;28;20564;-70
2022/09/15 02:21:52;;;;;;;20.00;15.53;;;16.00;96.50;;;;;;5053500;28;20520;-70
2022/09/15 02:24:29;;;;;;;17.20;14.17;;;16.00;96.60;;;;;;5053322;28;20471;-70
2022/09/15 02:26:57;;;;;;;18.53;14.97;;;15.90;96.60;;;;;;5053528;28;20496;-69
2022/09/15 02:29:27;;;;;;;18.43;13.60;;;15.90;96.60;;;;;;5053417;28;20445;-69
2022/09/15 02:31:56;;;;;;;16.47;14.63;;;15.80;96.60;;;;;;5054662;28;20478;-70
2022/09/15 02:34:29;;;;;;;16.50;14.67;;;15.80;96.70;;;;;;5053497;28;20465;-70
2022/09/15 02:36:56;;;;;;;19.67;15.00;;;15.80;96.60;;;;;;5053559;28;20764;-70
2022/09/15 02:39:29;;;;;;;16.70;14.87;;;15.80;96.40;;;;;;5053259;28;20447;-69
2022/09/15 02:41:56;;;;;;;17.13;15.33;;;15.70;96.30;;;;;;5053665;28;20439;-70
2022/09/15 02:44:22;;;;;;;16.83;15.03;;;15.70;96.50;;;;;;5053532;28;20467;-70
2022/09/15 02:46:50;;;;;;;16.30;14.63;;;15.70;96.50;;;;;;5053344;28;20456;-70
2022/09/15 02:49:17;;;;;;;15.33;13.73;;;15.70;96.40;;;;;;5053585;28;20510;-69
2022/09/15 02:51:45;;;;;;;17.77;14.67;;;15.70;96.40;;;;;;5053570;28;20560;-69
2022/09/15 02:54:12;;;;;;;17.07;15.27;;;15.70;96.40;;;;;;5053511;28;20488;-69
2022/09/15 02:56:39;;;;;;;18.77;15.93;;;15.70;96.40;;;;;;5053517;28;20453;-69
2022/09/15 02:59:06;;;;;;;18.83;15.57;;;15.80;96.70;;;;;;5053312;28;20456;-69
2022/09/15 03:01:33;;;;;;;19.23;17.20;;;15.70;96.70;;;;;;5052662;28;20997;-68
2022/09/15 03:04:01;;;;;;;18.80;16.40;;;15.70;96.70;;;;;;5053689;28;20487;-70
2022/09/15 03:06:33;;;;;;;18.57;16.27;;;15.70;96.80;;;;;;5053577;28;20450;-70
2022/09/15 03:09:04;;;;;;;20.17;17.93;;;15.70;96.80;;;;;;5053712;28;20455;-69
2022/09/15 03:11:32;;;;;;;19.27;16.13;;;15.70;96.90;;;;;;5053727;28;20425;-69
2022/09/15 03:14:00;;;;;;;18.80;16.73;;;15.70;97.10;;;;;;5053557;28;20477;-69
2022/09/15 03:16:28;;;;;;;18.87;15.63;;;15.80;97.10;;;;;;5053660;28;20443;-69
2022/09/15 03:18:57;;;;;;;18.23;16.33;;;15.70;97.00;;;;;;5054654;28;20460;-69
2022/09/15 03:21:24;;;;;;;25.90;19.33;;;15.70;97.00;;;;;;5057034;28;20491;-69
2022/09/15 03:23:51;;;;;;;22.40;18.50;;;15.60;97.10;;;;;;5057218;28;20478;-70
2022/09/15 03:26:19;;;;;;;24.50;20.10;;;15.60;97.30;;;;;;5057478;28;20484;-69
2022/09/15 03:28:45;;;;;;;27.03;20.53;;;15.60;97.60;;;;;;5056993;28;20463;-70
2022/09/15 03:31:12;;;;;;;30.30;22.73;;;15.60;97.90;;;;;;5056959;28;20842;-69
2022/09/15 03:33:39;;;;;;;28.07;22.23;;;15.50;98.10;;;;;;5057020;28;20477;-70
2022/09/15 03:36:07;;;;;;;32.47;23.80;;;15.50;98.40;;;;;;5057271;28;20525;-69
2022/09/15 03:38:34;;;;;;;27.00;22.07;;;15.50;98.70;;;;;;5056946;28;20560;-69
2022/09/15 03:41:03;;;;;;;25.50;20.40;;;15.40;98.80;;;;;;5056557;28;21024;-69
2022/09/15 03:43:32;;;;;;;27.47;20.50;;;15.50;99.00;;;;;;5057242;28;21072;-70
2022/09/15 03:45:59;;;;;;;25.47;20.30;;;15.50;99.10;;;;;;5057184;28;20452;-69
2022/09/15 03:48:27;;;;;;;28.23;21.87;;;15.50;99.20;;;;;;5056969;28;20452;-69
2022/09/15 03:50:53;;;;;;;28.80;20.20;;;15.40;99.20;;;;;;5057333;28;20550;-69
2022/09/15 03:53:20;;;;;;;24.80;19.77;;;15.50;99.30;;;;;;5057696;28;20477;-69
2022/09/15 03:55:48;;;;;;;23.87;19.50;;;15.40;99.30;;;;;;5057429;28;20451;-68
2022/09/15 03:58:15;;;;;;;23.63;18.90;;;15.40;99.40;;;;;;5056883;28;20437;-68
2022/09/15 04:00:44;;;;;;;22.07;19.63;;;15.40;99.60;;;;;;5056725;28;20519;-68
2022/09/15 04:03:11;;;;;;;21.73;18.23;;;15.40;99.70;;;;;;5057014;28;20472;-70
2022/09/15 04:05:38;;;;;;;19.37;17.30;;;15.40;99.80;;;;;;5056819;28;20455;-70
2022/09/15 04:08:05;;;;;;;20.23;17.30;;;15.40;99.90;;;;;;5056753;28;20451;-69
2022/09/15 04:10:32;;;;;;;20.40;17.87;;;15.40;99.80;;;;;;5056725;28;20454;-69
2022/09/15 04:12:59;;;;;;;27.73;18.60;;;15.40;99.90;;;;;;5056614;28;20473;-70
2022/09/15 04:18:20;;;;;;;22.77;18.70;;;15.50;99.90;;;;;;5033189;28;20435;-68
2022/09/15 04:20:47;;;;;;;22.13;17.70;;;15.50;99.90;;;;;;5056104;28;20480;-69
2022/09/15 04:23:14;;;;;;;23.47;19.30;;;15.60;99.90;;;;;;5056428;28;21002;-68
2022/09/15 04:25:41;;;;;;;25.13;18.40;;;15.50;99.90;;;;;;5056543;28;20526;-69
2022/09/15 04:28:07;;;;;;;22.37;19.33;;;15.60;99.90;;;;;;5056550;28;20450;-69
2022/09/15 04:30:35;;;;;;;25.03;21.63;;;15.50;99.90;;;;;;5055718;28;20962;-68
2022/09/15 04:33:02;;;;;;;27.70;21.00;;;15.60;99.90;;;;;;5056036;28;20530;-69
2022/09/15 04:35:30;;;;;;;22.47;18.03;;;15.60;99.90;;;;;;5056626;28;20449;-69
2022/09/15 04:37:57;;;;;;;25.40;19.00;;;15.60;99.90;;;;;;5055920;28;20453;-67
2022/09/15 04:40:24;;;;;;;25.50;18.80;;;15.60;99.90;;;;;;5056839;28;20488;-68
2022/09/15 04:42:51;;;;;;;25.87;19.13;;;15.60;99.90;;;;;;5055761;28;20664;-69
2022/09/15 04:45:18;;;;;;;23.60;18.30;;;15.60;99.90;;;;;;5056047;28;20461;-68
2022/09/15 04:47:47;;;;;;;22.87;19.07;;;15.50;99.90;;;;;;5055992;28;20452;-67
2022/09/15 04:50:14;;;;;;;22.17;17.20;;;15.50;99.90;;;;;;5056323;28;20449;-69
2022/09/15 04:52:42;;;;;;;23.87;18.83;;;15.50;99.90;;;;;;5055740;28;20465;-69
2022/09/15 04:55:09;;;;;;;20.40;17.50;;;15.50;99.90;;;;;;5055881;28;20833;-68
2022/09/15 04:57:36;;;;;;;22.40;17.33;;;15.50;99.90;;;;;;5055761;28;20456;-68
2022/09/15 05:00:06;;;;;;;26.90;18.37;;;15.50;99.90;;;;;;5055234;28;20445;-67
2022/09/15 05:02:33;;;;;;;22.67;18.17;;;15.50;99.90;;;;;;5055212;28;20465;-69
2022/09/15 05:05:00;;;;;;;23.70;17.40;;;15.50;99.90;;;;;;5055073;28;20449;-69
2022/09/15 05:07:27;;;;;;;23.87;16.77;;;15.50;99.90;;;;;;5055186;28;20455;-68
2022/09/15 05:09:55;;;;;;;20.70;17.20;;;15.50;99.90;;;;;;5054605;28;20952;-68
2022/09/15 05:12:22;;;;;;;22.37;16.83;;;15.40;99.90;;;;;;5054969;28;20453;-69
2022/09/15 05:14:49;;;;;;;25.97;17.73;;;15.40;99.90;;;;;;5054942;28;20529;-68
2022/09/15 05:17:16;;;;;;;20.63;16.80;;;15.50;99.90;;;;;;5055255;28;20842;-69
2022/09/15 05:19:42;;;;;;;22.73;16.03;;;15.50;99.90;;;;;;5054217;28;20461;-69
2022/09/15 05:22:09;;;;;;;24.40;16.43;;;15.50;99.90;;;;;;5054410;28;20492;-69
2022/09/15 05:24:36;;;;;;;26.03;16.43;;;15.50;99.90;;;;;;5054411;28;20874;-69
2022/09/15 05:27:04;;;;;;;19.33;17.20;;;15.50;99.90;;;;;;5054596;28;20437;-69
2022/09/15 05:29:31;;;;;;;23.73;18.40;;;15.50;99.90;;;;;;5054483;28;20471;-68
2022/09/15 05:31:58;;;;;;;20.37;17.00;;;15.50;99.90;;;;;;5054534;28;20445;-69
2022/09/15 05:34:24;;;;;;;20.10;16.93;;;15.50;99.90;;;;;;5054311;28;20469;-69
2022/09/15 05:36:51;;;;;;;23.70;17.30;;;15.50;99.90;;;;;;5054274;28;20457;-69
2022/09/15 05:39:18;;;;;;;28.57;19.30;;;15.50;99.90;;;;;;5054309;28;20447;-68
2022/09/15 05:41:44;;;;;;;23.00;16.80;;;15.50;99.90;;;;;;5053386;28;20481;-68
2022/09/15 05:44:12;;;;;;;26.40;17.30;;;15.50;99.90;;;;;;5054369;28;21010;-69
2022/09/15 05:46:39;;;;;;;25.63;18.20;;;15.50;99.90;;;;;;5054561;28;20476;-69
2022/09/15 05:49:07;;;;;;;24.27;17.33;;;15.50;99.90;;;;;;5054463;28;20458;-68
2022/09/15 05:51:34;;;;;;;23.00;17.10;;;15.50;99.90;;;;;;5054718;28;20457;-69
2022/09/15 05:54:01;;;;;;;27.97;17.87;;;15.50;99.90;;;;;;5054510;28;20902;-68
2022/09/15 05:56:27;;;;;;;22.33;17.10;;;15.50;99.90;;;;;;5054784;28;20464;-67
2022/09/15 05:58:54;;;;;;;19.10;15.63;;;15.60;99.90;;;;;;5054452;28;20831;-69
2022/09/15 06:01:24;;;;;;;18.07;15.87;;;15.60;99.90;;;;;;5053746;28;20852;-68
2022/09/15 06:03:54;;;;;;;24.17;17.87;;;15.60;99.90;;;;;;5053923;28;20990;-69
2022/09/15 06:06:21;;;;;;;23.10;17.57;;;15.60;99.90;;;;;;5054130;28;20453;-69
2022/09/15 06:08:53;;;;;;;26.37;17.27;;;15.60;99.90;;;;;;5053880;28;20444;-68
2022/09/15 06:11:22;;;;;;;21.03;16.23;;;15.70;99.90;;;;;;5054241;28;20447;-69
2022/09/15 06:13:49;;;;;;;23.77;16.87;;;15.80;99.90;;;;;;5054094;28;20480;-69
2022/09/15 06:16:18;;;;;;;21.73;16.37;;;15.80;99.90;;;;;;5054011;28;20441;-69
2022/09/15 06:18:47;;;;;;;20.33;15.23;;;15.80;99.90;;;;;;5054311;28;20455;-67
2022/09/15 06:21:16;;;;;;;22.90;16.67;;;15.90;99.90;;;;;;5054074;28;20492;-68
2022/09/15 06:23:43;;;;;;;22.70;17.30;;;16.00;99.90;;;;;;5053974;28;20481;-69
2022/09/15 06:26:12;;;;;;;24.30;16.40;;;16.10;99.90;;;;;;5053771;28;20465;-69
2022/09/15 06:28:41;;;;;;;19.33;16.00;;;16.10;99.90;;;;;;5053929;28;20441;-68
2022/09/15 06:31:11;;;;;;;24.30;17.10;;;16.20;99.90;;;;;;5053489;28;20446;-68
2022/09/15 06:33:40;;;;;;;22.03;17.17;;;16.20;99.90;;;;;;5053369;28;20526;-69
2022/09/15 06:36:10;;;;;;;18.37;14.50;;;16.30;99.90;;;;;;5053670;28;20459;-69
2022/09/15 06:38:37;;;;;;;23.10;17.40;;;16.30;99.90;;;;;;5053450;28;20445;-68
2022/09/15 06:41:04;;;;;;;24.40;17.10;;;16.30;99.90;;;;;;5053587;28;20897;-68
2022/09/15 06:43:32;;;;;;;18.43;16.40;;;16.40;99.90;;;;;;5053727;28;20473;-68
2022/09/15 06:46:04;;;;;;;18.23;15.50;;;16.40;99.90;;;;;;5053885;28;20456;-69
2022/09/15 06:48:32;;;;;;;22.43;16.63;;;16.50;99.90;;;;;;5053371;28;20940;-68
2022/09/15 06:50:59;;;;;;;18.83;15.77;;;16.60;99.90;;;;;;5053147;28;20492;-68
2022/09/15 06:53:28;;;;;;;19.70;16.67;;;16.70;99.90;;;;;;5055625;28;20522;-68
2022/09/15 06:55:55;;;;;;;21.00;14.83;;;16.70;99.60;;;;;;5057366;28;20453;-68
2022/09/15 06:58:21;;;;;;;18.87;15.60;;;16.80;99.40;;;;;;5057136;28;20967;-69
2022/09/15 07:00:48;;;;;;;20.33;15.37;;;16.90;99.40;;;;;;5057253;28;20448;-68
2022/09/15 07:03:15;;;;;;;17.60;15.80;;;16.90;99.50;;;;;;5057390;28;20505;-69
2022/09/15 07:05:44;;;;;;;23.27;16.00;;;16.90;99.20;;;;;;5056869;28;20956;-69
2022/09/15 07:08:10;;;;;;;18.60;16.30;;;17.00;99.30;;;;;;5057158;28;20464;-69
2022/09/15 07:10:38;;;;;;;19.30;16.20;;;17.00;99.30;;;;;;5057016;28;20456;-68
2022/09/15 07:13:05;;;;;;;18.87;15.80;;;17.10;99.10;;;;;;5056953;28;20473;-69
2022/09/15 07:15:32;;;;;;;22.43;17.03;;;17.20;99.00;;;;;;5056974;28;20453;-69
2022/09/15 07:17:59;;;;;;;18.10;16.20;;;17.20;98.70;;;;;;5056847;28;20487;-68
2022/09/15 07:20:26;;;;;;;18.97;15.73;;;17.10;98.30;;;;;;5056858;28;20460;-69
2022/09/15 07:22:53;;;;;;;17.27;15.53;;;17.20;98.40;;;;;;5056630;28;20500;-69
2022/09/15 07:25:19;;;;;;;17.00;15.23;;;17.20;98.40;;;;;;5056839;28;20453;-69
2022/09/15 07:27:47;;;;;;;16.47;14.80;;;17.20;98.40;;;;;;5056453;28;20823;-69
2022/09/15 07:30:15;;;;;;;19.30;15.23;;;17.20;98.40;;;;;;5056569;28;20457;-68
2022/09/15 07:32:41;;;;;;;17.63;15.20;;;17.30;98.50;;;;;;5056698;28;20479;-70
2022/09/15 07:35:09;;;;;;;17.10;15.13;;;17.30;98.60;;;;;;5056553;28;20456;-70
2022/09/15 07:37:35;;;;;;;21.50;17.33;;;17.30;98.70;;;;;;5056640;28;20457;-70
2022/09/15 07:40:03;;;;;;;19.03;16.77;;;17.40;98.70;;;;;;5056569;28;20492;-69
2022/09/15 07:42:31;;;;;;;17.77;15.90;;;17.50;98.50;;;;;;5056602;28;20572;-69
2022/09/15 07:44:59;;;;;;;19.33;14.90;;;17.50;98.00;;;;;;5056180;28;20973;-69
2022/09/15 07:47:25;;;;;;;17.83;15.40;;;17.50;98.20;;;;;;5057023;28;20449;-70
2022/09/15 07:49:52;;;;;;;17.97;16.10;;;17.60;98.10;;;;;;5057053;28;20449;-69
2022/09/15 07:52:19;;;;;;;19.87;17.40;;;17.60;97.80;;;;;;5057875;28;20454;-70
2022/09/15 07:54:46;;;;;;;16.37;14.83;;;17.60;98.10;;;;;;5056997;28;20520;-70
2022/09/15 07:57:12;;;;;;;16.70;15.00;;;17.70;98.00;;;;;;5057021;28;20462;-68
2022/09/15 07:59:39;;;;;;;21.03;16.67;;;17.80;98.10;;;;;;5056543;28;20446;-69
2022/09/15 08:02:09;;;;;;;19.30;16.40;;;18.00;97.80;;;;;;5055989;28;20481;-70
2022/09/15 08:04:36;;;;;;;19.40;15.80;;;18.20;97.90;;;;;;5055974;28;20437;-70
2022/09/15 08:07:03;;;;;;;19.63;17.23;;;18.40;97.50;;;;;;5056897;28;20798;-70
2022/09/15 08:09:30;;;;;;;17.03;14.40;;;18.60;97.30;;;;;;5057003;28;20974;-70
2022/09/15 08:11:57;;;;;;;17.20;15.67;;;18.60;96.70;;;;;;5057093;28;20442;-70
2022/09/15 08:14:24;;;;;;;17.10;15.20;;;18.70;96.10;;;;;;5056777;28;21018;-70
2022/09/15 08:16:50;;;;;;;17.90;16.03;;;18.80;96.00;;;;;;5056679;28;20465;-70
2022/09/15 08:19:19;;;;;;;16.93;14.23;;;18.70;95.20;;;;;;5056445;28;20531;-69
2022/09/15 08:21:46;;;;;;;17.07;15.37;;;18.80;95.50;;;;;;5056645;28;20572;-70
2022/09/15 08:24:13;;;;;;;18.30;15.57;;;18.80;95.60;;;;;;5056978;28;20473;-70
2022/09/15 08:26:41;;;;;;;17.10;15.27;;;18.80;95.70;;;;;;5056218;28;20457;-69
2022/09/15 08:29:08;;;;;;;27.60;15.40;;;18.80;95.60;;;;;;5056588;28;20453;-69
2022/09/15 08:31:34;;;;;;;17.17;15.37;;;18.90;95.60;;;;;;5057750;28;20487;-70
2022/09/15 08:34:05;;;;;;;20.10;16.47;;;18.90;95.20;;;;;;5056265;28;20474;-70
2022/09/15 08:36:33;;;;;;;18.27;16.40;;;19.10;95.30;;;;;;5056023;28;20445;-70
2022/09/15 08:39:00;;;;;;;17.23;15.07;;;19.20;95.00;;;;;;5055977;28;20441;-70
2022/09/15 08:41:30;;;;;;;19.13;14.30;;;19.30;95.00;;;;;;5055610;28;20437;-70
2022/09/15 08:44:03;;;;;;;17.03;15.23;;;19.30;94.50;;;;;;5055477;28;20477;-70
2022/09/15 08:46:36;;;;;;;16.90;15.30;;;19.40;93.90;;;;;;5055516;28;20426;-70
2022/09/15 08:49:09;;;;;;;15.63;13.90;;;19.50;93.50;;;;;;5055707;28;20435;-70
2022/09/15 08:51:45;;;;;;;17.47;15.67;;;19.50;93.20;;;;;;5055374;28;20422;-70
2022/09/15 08:54:18;;;;;;;16.13;14.60;;;19.70;93.20;;;;;;5054930;28;20992;-70
2022/09/15 08:56:46;;;;;;;15.60;14.00;;;19.80;92.30;;;;;;5055124;28;20442;-70
2022/09/15 08:59:15;;;;;;;15.03;13.53;;;19.90;91.60;;;;;;5055432;28;20500;-70
2022/09/15 09:02:13;;;;;;;13.90;12.43;;;20.00;91.70;;;;;;5055506;28;20473;-70
2022/09/15 09:05:18;;;;;;;13.10;11.80;;;20.10;90.80;;;;;;5055310;28;20426;-70
2022/09/15 09:08:10;;;;;;;15.43;13.10;;;20.30;90.10;;;;;;5055215;28;20829;-70
2022/09/15 09:10:46;;;;;;;15.00;13.60;;;20.50;90.30;;;;;;5055814;28;20434;-70
2022/09/15 09:13:24;;;;;;;13.70;11.67;;;20.70;90.20;;;;;;5054992;28;20469;-71
2022/09/15 09:16:06;;;;;;;14.90;13.50;;;20.70;88.70;;;;;;5055406;28;20453;-71
2022/09/15 09:18:56;;;;;;;15.17;12.77;;;20.90;88.40;;;;;;5055184;28;20453;-70
2022/09/15 09:21:28;;;;;;;15.70;12.10;;;20.90;88.00;;;;;;5052769;28;20470;-70
2022/09/15 09:24:04;;;;;;;15.27;13.77;;;21.00;88.20;;;;;;5055355;28;20477;-70
2022/09/15 09:26:33;;;;;;;19.10;13.03;;;21.00;86.80;;;;;;5055475;28;20430;-70
2022/09/15 09:29:01;;;;;;;11.53;10.43;;;21.00;87.70;;;;;;5055343;28;20532;-71
2022/09/15 09:31:29;;;;;;;14.53;10.47;;;20.90;87.30;;;;;;5055038;28;20941;-70
2022/09/15 09:34:05;;;;;;;11.00;10.00;;;20.90;85.90;;;;;;5055764;28;20470;-71
2022/09/15 09:36:32;;;;;;;11.73;9.33;;;20.80;85.90;;;;;;5055988;28;20442;-71
2022/09/15 09:39:02;;;;;;;7.60;6.23;;;20.70;86.70;;;;;;5055659;28;20453;-70
2022/09/15 09:41:34;;;;;;;8.97;7.03;;;20.60;87.30;;;;;;5056756;28;20464;-71
2022/09/15 09:44:03;;;;;;;8.13;7.00;;;20.60;86.50;;;;;;5056600;28;20557;-71
2022/09/15 09:46:30;;;;;;;7.30;6.60;;;20.70;87.00;;;;;;5055862;28;20820;-70
2022/09/15 09:49:02;;;;;;;7.87;6.50;;;20.70;83.80;;;;;;5055078;28;20446;-70
2022/09/15 09:51:35;;;;;;;7.40;5.73;;;20.70;84.00;;;;;;5054459;28;20438;-70
2022/09/15 09:54:12;;;;;;;12.17;7.60;;;20.60;83.60;;;;;;5054517;28;20466;-70
2022/09/15 09:56:39;;;;;;;9.50;7.00;;;20.60;84.60;;;;;;5055160;28;20536;-70
2022/09/15 09:59:40;;;;;;;9.83;8.50;;;20.50;84.90;;;;;;5054764;28;20473;-70
2022/09/15 10:02:18;;;;;;;8.83;7.93;;;20.60;85.70;;;;;;5055080;28;20481;-70
2022/09/15 10:04:46;;;;;;;13.03;8.43;;;20.70;86.30;;;;;;5054372;28;20529;-71
2022/09/15 10:07:15;;;;;;;9.83;8.83;;;20.70;87.10;;;;;;5054613;28;20929;-71
2022/09/15 10:09:56;;;;;;;13.03;9.23;;;20.70;85.40;;;;;;5054232;28;20449;-69
2022/09/15 10:12:30;;;;;;;12.73;10.23;;;20.80;85.30;;;;;;5054482;28;20469;-71
2022/09/15 10:15:01;;;;;;;12.67;10.60;;;20.80;85.00;;;;;;5054059;28;20437;-70
2022/09/15 10:17:40;;;;;;;10.53;9.53;;;20.80;85.70;;;;;;5054284;28;20430;-70
2022/09/15 10:20:23;;;;;;;14.37;9.97;;;20.90;85.30;;;;;;5053908;28;20461;-71
2022/09/15 10:22:50;;;;;;;13.10;9.23;;;21.00;84.60;;;;;;5054195;28;20912;-70
2022/09/15 10:25:32;;;;;;;13.07;10.10;;;21.20;83.30;;;;;;5054552;28;20456;-71
2022/09/15 10:28:12;;;;;;;14.33;9.37;;;21.50;83.20;;;;;;5055137;28;20457;-70
2022/09/15 10:30:56;;;;;;;14.30;8.93;;;21.80;81.30;;;;;;5055584;28;20536;-70
2022/09/15 10:33:25;;;;;;;10.80;9.33;;;22.00;80.00;;;;;;5057011;28;20466;-70
2022/09/15 10:35:53;;;;;;;7.83;6.33;;;22.20;78.30;;;;;;5057540;28;20843;-70
2022/09/15 10:38:31;;;;;;;10.10;6.07;;;22.30;77.30;;;;;;5056537;28;20536;-70
2022/09/15 10:41:11;;;;;;;9.27;6.60;;;22.40;75.00;;;;;;5056918;28;20430;-70
2022/09/15 10:43:46;;;;;;;8.70;6.23;;;22.50;73.60;;;;;;5055720;28;20500;-70
2022/09/15 10:46:20;;;;;;;6.83;6.10;;;22.40;73.50;;;;;;5055782;28;20777;-70
2022/09/15 10:49:00;;;;;;;6.73;5.77;;;22.40;73.50;;;;;;5056365;28;20430;-70
2022/09/15 10:51:37;;;;;;;10.10;5.30;;;22.30;73.30;;;;;;5057059;28;20446;-71
2022/09/15 10:54:25;;;;;;;15.27;5.23;;;22.20;72.00;;;;;;5054758;28;21002;-71
2022/09/15 10:57:02;;;;;;;8.90;7.20;;;22.10;72.10;;;;;;5055290;28;20438;-70
2022/09/15 10:59:45;;;;;;;6.80;6.00;;;21.90;71.50;;;;;;5055092;28;20992;-70
2022/09/15 11:02:29;;;;;;;5.60;5.03;;;21.80;73.70;;;;;;5058496;28;20442;-70
2022/09/15 11:05:21;;;;;;;8.43;5.00;;;21.80;73.50;;;;;;5060765;28;20441;-71
2022/09/15 11:08:00;;;;;;;6.30;5.27;;;21.90;73.60;;;;;;5060218;28;20430;-70
2022/09/15 11:10:32;;;;;;;9.43;5.07;;;22.10;73.80;;;;;;5059063;28;20441;-70
2022/09/15 11:13:07;;;;;;;6.57;4.03;;;22.20;75.30;;;;;;5060359;28;20469;-70
2022/09/15 11:15:45;;;;;;;4.23;3.80;;;22.30;71.90;;;;;;5060707;28;20441;-70
2022/09/15 11:18:27;;;;;;;9.40;4.07;;;22.30;70.50;;;;;;5060095;28;20437;-69
2022/09/15 11:21:08;;;;;;;6.13;4.00;;;22.40;70.20;;;;;;5059833;28;20452;-70
2022/09/15 11:23:40;;;;;;;5.63;3.03;;;22.20;69.30;;;;;;5060059;28;20489;-70
2022/09/15 11:26:11;;;;;;;5.47;3.40;;;22.10;69.00;;;;;;5060253;28;20469;-70
2022/09/15 11:28:43;;;;;;;5.00;2.90;;;21.80;68.40;;;;;;5064070;28;20936;-69
2022/09/15 11:31:16;;;;;;;11.63;4.03;;;21.70;69.30;;;;;;5059669;28;20433;-70
2022/09/15 11:33:48;;;;;;;7.43;2.27;;;21.50;71.50;;;;;;5065581;28;20470;-70
2022/09/15 11:36:19;;;;;;;6.70;2.73;;;21.30;71.20;;;;;;5053825;28;20488;-69
2022/09/15 11:38:51;;;;;;;3.40;2.23;;;21.20;70.00;;;;;;5053967;28;20434;-69
2022/09/15 11:41:23;;;;;;;5.57;2.90;;;21.10;70.20;;;;;;5057687;28;20524;-70
2022/09/15 11:44:04;;;;;;;5.10;3.70;;;21.10;71.80;;;;;;5056539;28;20992;-70
2022/09/15 11:46:42;;;;;;;6.63;3.83;;;21.00;73.40;;;;;;5056485;28;20437;-69
2022/09/15 11:49:17;;;;;;;3.77;3.37;;;21.00;71.20;;;;;;5056888;28;20470;-69
2022/09/15 11:51:50;;;;;;;5.93;4.37;;;21.10;72.90;;;;;;5056915;28;20430;-69
2022/09/15 11:54:25;;;;;;;5.73;5.23;;;21.20;71.80;;;;;;5057018;28;20829;-70
2022/09/15 11:56:54;;;;;;;7.67;5.60;;;21.30;71.90;;;;;;5056603;28;20784;-69
2022/09/15 11:59:29;;;;;;;10.07;6.33;;;21.50;70.10;;;;;;5056361;28;20967;-69
2022/09/15 12:02:03;;;;;;;7.23;5.03;;;21.80;69.40;;;;;;5056248;28;20458;-70
2022/09/15 12:04:34;;;;;;;8.30;4.63;;;22.60;68.80;;;;;;5056286;28;20523;-70
2022/09/15 12:07:12;;;;;;;4.80;4.27;;;23.10;63.60;;;;;;5056440;28;20503;-70
2022/09/15 12:09:39;;;;;;;5.60;4.00;;;23.30;63.50;;;;;;5056218;28;20532;-69
2022/09/15 12:12:12;;;;;;;8.40;3.70;;;23.40;61.60;;;;;;5055962;28;20454;-70
2022/09/15 12:14:43;;;;;;;5.17;3.57;;;23.40;63.70;;;;;;5056863;28;20434;-71
2022/09/15 12:17:17;;;;;;;7.33;3.50;;;23.30;61.20;;;;;;5056118;28;20445;-70
2022/09/15 12:19:52;;;;;;;7.07;3.50;;;23.30;62.60;;;;;;5055885;28;20940;-70
2022/09/15 12:22:24;;;;;;;4.83;3.20;;;23.00;63.20;;;;;;5056139;28;20445;-70
2022/09/15 12:24:56;;;;;;;4.07;2.70;;;22.80;63.20;;;;;;5056226;28;20227;-70
2022/09/15 12:27:23;;;;;;;9.27;3.17;;;22.50;64.50;;;;;;5056200;28;20522;-70
2022/09/15 12:29:53;;;;;;;4.17;2.63;;;22.10;64.60;;;;;;5055542;28;20445;-69
2022/09/15 12:32:23;;;;;;;6.00;2.30;;;21.80;66.70;;;;;;5055933;28;20453;-70
2022/09/15 12:35:02;;;;;;;7.73;2.53;;;21.60;67.50;;;;;;5056117;28;20481;-70
2022/09/15 12:37:43;;;;;;;3.00;1.33;;;21.50;69.70;;;;;;5055618;28;20448;-70
2022/09/15 12:40:32;;;;;;;3.83;1.10;;;21.40;65.60;;;;;;5056510;28;20491;-69
2022/09/15 12:43:01;;;;;;;4.57;1.50;;;21.30;65.10;;;;;;5055495;28;20496;-70
2022/09/15 12:45:32;;;;;;;2.20;1.10;;;21.20;65.80;;;;;;5055546;28;20445;-70
2022/09/15 12:48:03;;;;;;;8.33;1.50;;;21.20;65.10;;;;;;5055865;28;20434;-70
2022/09/15 12:50:32;;;;;;;2.60;1.33;;;21.10;65.40;;;;;;5055650;28;20806;-70
2022/09/15 12:53:00;;;;;;;5.43;1.30;;;20.80;65.20;;;;;;5056054;28;20466;-69